createdAt,value
2018-01-15T00:00:36.509Z,1023.17
2018-01-15T00:01:36.824Z,1023.16
2018-01-15T00:02:37.217Z,1023.17
2018-01-15T00:03:37.207Z,1023.08
2018-01-15T00:04:37.668Z,1023.11
2018-01-15T00:05:38.385Z,1023.07
2018-01-15T00:06:38.401Z,1023.03
2018-01-15T00:07:38.433Z,1023.14
2018-01-15T00:08:38.571Z,1023.11
2018-01-15T00:09:38.750Z,1023.02
2018-01-15T00:10:38.692Z,1023.03
2018-01-15T00:11:38.619Z,1023.06
2018-01-15T00:12:38.651Z,1023.02
2018-01-15T00:13:38.725Z,1023.03
2018-01-15T00:14:38.842Z,1022.95
2018-01-15T00:15:38.690Z,1022.94
2018-01-15T00:16:39.149Z,1022.89
2018-01-15T00:17:39.244Z,1022.9
2018-01-15T00:18:39.228Z,1022.83
2018-01-15T00:19:39.227Z,1022.86
2018-01-15T00:20:39.931Z,1022.89
2018-01-15T00:21:39.350Z,1022.88
2018-01-15T00:22:39.382Z,1022.94
2018-01-15T00:23:39.388Z,1022.94
2018-01-15T00:24:39.426Z,1022.89
2018-01-15T00:25:39.585Z,1022.86
2018-01-15T00:26:39.627Z,1022.82
2018-01-15T00:27:40.069Z,1022.89
2018-01-15T00:28:40.492Z,1022.81
2018-01-15T00:29:40.703Z,1022.81
2018-01-15T00:30:40.997Z,1022.82
2018-01-15T00:31:40.987Z,1022.77
2018-01-15T00:32:41.118Z,1022.79
2018-01-15T00:33:41.148Z,1022.81
2018-01-15T00:34:41.548Z,1022.79
2018-01-15T00:35:41.791Z,1022.74
2018-01-15T00:36:41.780Z,1022.73
2018-01-15T00:37:42.005Z,1022.75
2018-01-15T00:38:41.995Z,1022.76
2018-01-15T00:39:42.221Z,1022.73
2018-01-15T00:40:42.185Z,1022.78
2018-01-15T00:41:42.205Z,1022.72
2018-01-15T00:42:42.271Z,1022.72
2018-01-15T00:43:42.733Z,1022.76
2018-01-15T00:44:42.856Z,1022.75
2018-01-15T00:45:43.068Z,1022.76
2018-01-15T00:46:43.087Z,1022.71
2018-01-15T00:47:43.115Z,1022.8
2018-01-15T00:48:43.275Z,1022.75
2018-01-15T00:49:43.649Z,1022.67
2018-01-15T00:50:43.793Z,1022.68
2018-01-15T00:51:43.801Z,1022.73
2018-01-15T00:52:44.156Z,1022.69
2018-01-15T00:53:44.268Z,1022.7
2018-01-15T00:54:44.310Z,1022.63
2018-01-15T00:55:44.321Z,1022.57
2018-01-15T00:56:44.337Z,1022.63
2018-01-15T00:57:44.702Z,1022.62
2018-01-15T00:58:44.338Z,1022.59
2018-01-15T00:59:44.937Z,1022.51
2018-01-15T01:00:44.812Z,1022.49
2018-01-15T01:01:44.890Z,1022.53
2018-01-15T01:02:44.438Z,1022.47
2018-01-15T01:03:45.097Z,1022.47
2018-01-15T01:04:45.249Z,1022.48
2018-01-15T01:05:45.570Z,1022.43
2018-01-15T01:06:45.137Z,1022.45
2018-01-15T01:07:45.130Z,1022.44
2018-01-15T01:08:45.320Z,1022.44
2018-01-15T01:09:45.322Z,1022.42
2018-01-15T01:10:45.321Z,1022.41
2018-01-15T01:11:45.233Z,1022.41
2018-01-15T01:12:45.571Z,1022.35
2018-01-15T01:13:45.643Z,1022.35
2018-01-15T01:14:45.543Z,1022.36
2018-01-15T01:15:45.283Z,1022.35
2018-01-15T01:16:45.270Z,1022.27
2018-01-15T01:17:45.436Z,1022.29
2018-01-15T01:18:45.354Z,1022.33
2018-01-15T01:19:45.479Z,1022.3
2018-01-15T01:20:45.442Z,1022.32
2018-01-15T01:21:45.952Z,1022.26
2018-01-15T01:22:45.839Z,1022.29
2018-01-15T01:23:45.522Z,1022.29
2018-01-15T01:24:45.818Z,1022.29
2018-01-15T01:25:45.481Z,1022.28
2018-01-15T01:26:45.843Z,1022.25
2018-01-15T01:27:45.892Z,1022.26
2018-01-15T01:28:45.530Z,1022.27
2018-01-15T01:29:45.948Z,1022.18
2018-01-15T01:30:45.971Z,1022.19
2018-01-15T01:31:45.974Z,1022.17
2018-01-15T01:32:45.994Z,1022.16
2018-01-15T01:33:46.530Z,1022.17
2018-01-15T01:34:46.452Z,1022.13
2018-01-15T01:35:46.470Z,1022.06
2018-01-15T01:36:46.530Z,1022.06
2018-01-15T01:37:46.683Z,1022.04
2018-01-15T01:38:46.606Z,1022.01
2018-01-15T01:39:46.589Z,1021.97
2018-01-15T01:40:46.587Z,1021.88
2018-01-15T01:41:46.615Z,1021.88
2018-01-15T01:42:46.629Z,1021.88
2018-01-15T01:43:46.782Z,1021.79
2018-01-15T01:44:46.816Z,1021.75
2018-01-15T01:45:46.841Z,1021.77
2018-01-15T01:46:47.257Z,1021.79
2018-01-15T01:47:47.411Z,1021.72
2018-01-15T01:48:47.460Z,1021.7
2018-01-15T01:49:47.418Z,1021.77
2018-01-15T01:50:47.452Z,1021.66
2018-01-15T01:51:47.679Z,1021.73
2018-01-15T01:52:47.652Z,1021.71
2018-01-15T01:53:47.645Z,1021.69
2018-01-15T01:54:47.789Z,1021.66
2018-01-15T01:55:47.830Z,1021.66
2018-01-15T01:56:48.034Z,1021.67
2018-01-15T01:57:48.793Z,1021.68
2018-01-15T01:58:48.631Z,1021.65
2018-01-15T01:59:48.866Z,1021.69
2018-01-15T02:00:48.916Z,1021.7
2018-01-15T02:01:48.788Z,1021.55
2018-01-15T02:02:48.755Z,1021.55
2018-01-15T02:03:49.318Z,1021.6
2018-01-15T02:04:49.570Z,1021.52
2018-01-15T02:05:49.562Z,1021.53
2018-01-15T02:06:49.238Z,1021.56
2018-01-15T02:07:49.221Z,1021.48
2018-01-15T02:08:49.247Z,1021.43
2018-01-15T02:09:49.258Z,1021.42
2018-01-15T02:10:49.464Z,1021.33
2018-01-15T02:11:49.659Z,1021.36
2018-01-15T02:12:49.923Z,1021.38
2018-01-15T02:13:49.850Z,1021.33
2018-01-15T02:14:49.902Z,1021.34
2018-01-15T02:15:50.310Z,1021.37
2018-01-15T02:16:50.545Z,1021.34
2018-01-15T02:17:50.980Z,1021.35
2018-01-15T02:18:51.145Z,1021.35
2018-01-15T02:19:51.530Z,1021.32
2018-01-15T02:20:51.500Z,1021.32
2018-01-15T02:21:51.848Z,1021.38
2018-01-15T02:22:51.907Z,1021.33
2018-01-15T02:23:52.037Z,1021.28
2018-01-15T02:24:52.057Z,1021.22
2018-01-15T02:25:52.076Z,1021.28
2018-01-15T02:26:52.112Z,1021.2
2018-01-15T02:27:52.490Z,1021.15
2018-01-15T02:28:52.599Z,1021.19
2018-01-15T02:29:53.016Z,1021.23
2018-01-15T02:30:53.129Z,1021.18
2018-01-15T02:31:54.070Z,1021.24
2018-01-15T02:32:54.075Z,1021.17
2018-01-15T02:33:54.551Z,1021.15
2018-01-15T02:34:54.707Z,1021.06
2018-01-15T02:35:54.988Z,1021.04
2018-01-15T02:36:55.769Z,1021
2018-01-15T02:37:56.016Z,1021.02
2018-01-15T02:38:55.654Z,1021.06
2018-01-15T02:39:55.686Z,1021.09
2018-01-15T02:40:55.709Z,1021.06
2018-01-15T02:41:56.133Z,1021.07
2018-01-15T02:42:56.138Z,1021.09
2018-01-15T02:43:56.315Z,1021.03
2018-01-15T02:44:56.327Z,1021.04
2018-01-15T02:45:56.354Z,1020.98
2018-01-15T02:46:56.391Z,1021.03
2018-01-15T02:47:56.405Z,1021
2018-01-15T02:48:56.402Z,1021.03
2018-01-15T02:49:56.642Z,1021.02
2018-01-15T02:50:56.524Z,1020.98
2018-01-15T02:51:56.883Z,1020.96
2018-01-15T02:52:56.908Z,1020.98
2018-01-15T02:53:56.936Z,1020.96
2018-01-15T02:54:56.952Z,1020.93
2018-01-15T02:55:57.316Z,1020.86
2018-01-15T02:56:57.247Z,1020.81
2018-01-15T02:57:57.687Z,1020.77
2018-01-15T02:58:57.578Z,1020.79
2018-01-15T02:59:58.870Z,1020.74
2018-01-15T03:00:58.500Z,1020.73
2018-01-15T03:01:58.922Z,1020.72
2018-01-15T03:02:59.021Z,1020.7
2018-01-15T03:03:59.085Z,1020.66
2018-01-15T03:04:59.201Z,1020.69
2018-01-15T03:05:59.448Z,1020.62
2018-01-15T03:06:59.446Z,1020.64
2018-01-15T03:07:59.458Z,1020.55
2018-01-15T03:08:59.452Z,1020.55
2018-01-15T03:09:59.530Z,1020.56
2018-01-15T03:10:59.542Z,1020.54
2018-01-15T03:11:59.520Z,1020.52
2018-01-15T03:12:59.825Z,1020.53
2018-01-15T03:13:59.897Z,1020.52
2018-01-15T03:14:59.861Z,1020.51
2018-01-15T03:15:59.884Z,1020.5
2018-01-15T03:17:00.150Z,1020.45
2018-01-15T03:18:00.620Z,1020.55
2018-01-15T03:19:00.809Z,1020.48
2018-01-15T03:20:00.637Z,1020.48
2018-01-15T03:21:00.779Z,1020.5
2018-01-15T03:22:00.854Z,1020.52
2018-01-15T03:23:01.245Z,1020.5
2018-01-15T03:24:01.381Z,1020.46
2018-01-15T03:25:01.391Z,1020.38
2018-01-15T03:26:01.458Z,1020.42
2018-01-15T03:27:01.799Z,1020.38
2018-01-15T03:28:01.472Z,1020.37
2018-01-15T03:29:01.407Z,1020.3
2018-01-15T03:30:01.429Z,1020.39
2018-01-15T03:31:01.643Z,1020.35
2018-01-15T03:32:01.388Z,1020.33
2018-01-15T03:33:02.444Z,1020.38
2018-01-15T03:34:02.000Z,1020.38
2018-01-15T03:35:16.518Z,1020.42
2018-01-15T03:36:16.959Z,1020.32
2018-01-15T03:37:16.537Z,1020.28
2018-01-15T03:38:16.562Z,1020.28
2018-01-15T03:39:16.782Z,1020.21
2018-01-15T03:40:16.860Z,1020.23
2018-01-15T03:41:17.789Z,1020.15
2018-01-15T03:42:17.329Z,1020.16
2018-01-15T03:43:17.292Z,1020.13
2018-01-15T03:44:17.615Z,1020.11
2018-01-15T03:45:17.700Z,1020.08
2018-01-15T03:46:17.987Z,1020.1
2018-01-15T03:48:18.017Z,1020.03
2018-01-15T03:49:18.084Z,1020.08
2018-01-15T03:50:18.079Z,1019.93
2018-01-15T03:51:18.129Z,1019.91
2018-01-15T03:52:18.136Z,1019.93
2018-01-15T03:53:18.162Z,1019.9
2018-01-15T03:54:18.173Z,1019.88
2018-01-15T03:55:18.104Z,1019.9
2018-01-15T03:56:17.828Z,1019.88
2018-01-15T03:57:18.168Z,1019.95
2018-01-15T03:58:18.453Z,1019.9
2018-01-15T03:59:18.393Z,1019.88
2018-01-15T04:00:33.074Z,1019.82
2018-01-15T04:01:33.123Z,1019.82
2018-01-15T04:02:33.142Z,1019.71
2018-01-15T04:03:33.291Z,1019.72
2018-01-15T04:04:33.728Z,1019.66
2018-01-15T04:05:34.252Z,1019.67
2018-01-15T04:06:33.835Z,1019.66
2018-01-15T04:07:34.799Z,1019.62
2018-01-15T04:08:34.631Z,1019.63
2018-01-15T04:09:34.604Z,1019.67
2018-01-15T04:10:35.175Z,1019.68
2018-01-15T04:11:34.819Z,1019.64
2018-01-15T04:12:35.378Z,1019.6
2018-01-15T04:13:35.765Z,1019.61
2018-01-15T04:14:35.872Z,1019.59
2018-01-15T04:15:35.770Z,1019.58
2018-01-15T04:16:36.092Z,1019.55
2018-01-15T04:17:36.430Z,1019.52
2018-01-15T04:18:36.104Z,1019.51
2018-01-15T04:19:36.053Z,1019.44
2018-01-15T04:20:36.297Z,1019.46
2018-01-15T04:21:36.262Z,1019.41
2018-01-15T04:22:36.428Z,1019.39
2018-01-15T04:23:36.791Z,1019.4
2018-01-15T04:24:36.623Z,1019.42
2018-01-15T04:25:36.324Z,1019.33
2018-01-15T04:26:36.327Z,1019.39
2018-01-15T04:27:36.340Z,1019.41
2018-01-15T04:28:36.382Z,1019.44
2018-01-15T04:29:36.746Z,1019.37
2018-01-15T04:30:36.830Z,1019.37
2018-01-15T04:31:36.862Z,1019.31
2018-01-15T04:32:36.905Z,1019.34
2018-01-15T04:33:37.298Z,1019.25
2018-01-15T04:34:37.312Z,1019.26
2018-01-15T04:35:37.754Z,1019.19
2018-01-15T04:36:37.745Z,1019.18
2018-01-15T04:37:37.843Z,1019.21
2018-01-15T04:38:37.845Z,1019.18
2018-01-15T04:39:38.174Z,1019.12
2018-01-15T04:40:38.227Z,1019.13
2018-01-15T04:41:38.211Z,1019.14
2018-01-15T04:42:38.294Z,1019.1
2018-01-15T04:43:38.272Z,1019.08
2018-01-15T04:44:38.293Z,1019.09
2018-01-15T04:45:38.288Z,1019.05
2018-01-15T04:46:38.311Z,1019.09
2018-01-15T04:47:38.355Z,1019.02
2018-01-15T04:48:38.365Z,1019.04
2018-01-15T04:49:38.417Z,1019.02
2018-01-15T04:50:38.643Z,1019.06
2018-01-15T04:51:38.873Z,1018.93
2018-01-15T04:52:38.893Z,1018.99
2018-01-15T04:53:39.074Z,1019.01
2018-01-15T04:54:38.946Z,1018.97
2018-01-15T04:55:39.080Z,1018.98
2018-01-15T04:56:39.196Z,1018.93
2018-01-15T04:57:39.833Z,1018.93
2018-01-15T04:58:39.902Z,1019
2018-01-15T04:59:39.956Z,1018.94
2018-01-15T05:00:40.234Z,1018.94
2018-01-15T05:01:40.684Z,1018.93
2018-01-15T05:02:40.812Z,1018.96
2018-01-15T05:03:40.714Z,1018.96
2018-01-15T05:04:40.738Z,1018.95
2018-01-15T05:05:41.312Z,1018.95
2018-01-15T05:06:41.229Z,1018.92
2018-01-15T05:07:41.242Z,1018.94
2018-01-15T05:08:41.267Z,1018.93
2018-01-15T05:09:41.326Z,1018.91
2018-01-15T05:10:41.299Z,1018.9
2018-01-15T05:11:41.319Z,1018.88
2018-01-15T05:12:41.482Z,1018.79
2018-01-15T05:13:41.533Z,1018.79
2018-01-15T05:14:41.528Z,1018.8
2018-01-15T05:15:41.716Z,1018.72
2018-01-15T05:16:41.722Z,1018.7
2018-01-15T05:17:41.741Z,1018.75
2018-01-15T05:18:41.940Z,1018.71
2018-01-15T05:19:41.943Z,1018.73
2018-01-15T05:20:41.965Z,1018.71
2018-01-15T05:21:42.263Z,1018.73
2018-01-15T05:22:42.658Z,1018.72
2018-01-15T05:23:42.684Z,1018.67
2018-01-15T05:24:43.155Z,1018.68
2018-01-15T05:25:43.188Z,1018.69
2018-01-15T05:26:43.185Z,1018.65
2018-01-15T05:27:43.245Z,1018.69
2018-01-15T05:28:43.245Z,1018.61
2018-01-15T05:29:44.059Z,1018.6
2018-01-15T05:30:43.942Z,1018.65
2018-01-15T05:31:44.079Z,1018.59
2018-01-15T05:32:44.155Z,1018.6
2018-01-15T05:33:44.003Z,1018.65
2018-01-15T05:34:44.054Z,1018.58
2018-01-15T05:35:44.076Z,1018.55
2018-01-15T05:36:44.092Z,1018.51
2018-01-15T05:37:44.082Z,1018.54
2018-01-15T05:38:44.173Z,1018.55
2018-01-15T05:39:44.191Z,1018.56
2018-01-15T05:40:44.227Z,1018.55
2018-01-15T05:41:44.524Z,1018.56
2018-01-15T05:42:44.270Z,1018.55
2018-01-15T05:43:44.808Z,1018.54
2018-01-15T05:44:44.750Z,1018.54
2018-01-15T05:45:44.730Z,1018.5
2018-01-15T05:46:45.299Z,1018.53
2018-01-15T05:47:45.375Z,1018.51
2018-01-15T05:48:45.315Z,1018.48
2018-01-15T05:49:45.352Z,1018.48
2018-01-15T05:50:45.384Z,1018.52
2018-01-15T05:51:45.382Z,1018.5
2018-01-15T05:52:45.410Z,1018.53
2018-01-15T05:53:45.829Z,1018.45
2018-01-15T05:54:45.832Z,1018.48
2018-01-15T05:55:45.841Z,1018.4
2018-01-15T05:56:45.863Z,1018.38
2018-01-15T05:57:45.884Z,1018.36
2018-01-15T05:58:45.909Z,1018.36
2018-01-15T05:59:46.056Z,1018.35
2018-01-15T06:00:46.130Z,1018.37
2018-01-15T06:01:46.193Z,1018.33
2018-01-15T06:02:46.320Z,1018.32
2018-01-15T06:03:46.341Z,1018.34
2018-01-15T06:04:46.414Z,1018.34
2018-01-15T06:05:46.557Z,1018.33
2018-01-15T06:06:46.457Z,1018.34
2018-01-15T06:07:46.409Z,1018.27
2018-01-15T06:08:47.003Z,1018.3
2018-01-15T06:09:47.023Z,1018.24
2018-01-15T06:10:47.047Z,1018.24
2018-01-15T06:11:47.162Z,1018.28
2018-01-15T06:12:47.087Z,1018.24
2018-01-15T06:13:47.102Z,1018.22
2018-01-15T06:14:47.130Z,1018.22
2018-01-15T06:15:47.288Z,1018.2
2018-01-15T06:16:47.592Z,1018.22
2018-01-15T06:17:47.359Z,1018.21
2018-01-15T06:18:47.691Z,1018.17
2018-01-15T06:19:47.221Z,1018.23
2018-01-15T06:20:47.412Z,1018.19
2018-01-15T06:21:47.682Z,1018.17
2018-01-15T06:22:48.039Z,1018.17
2018-01-15T06:23:47.457Z,1018.15
2018-01-15T06:24:47.888Z,1018.12
2018-01-15T06:25:47.505Z,1018.11
2018-01-15T06:26:47.524Z,1018.08
2018-01-15T06:27:47.700Z,1018.04
2018-01-15T06:28:47.902Z,1018.06
2018-01-15T06:29:47.771Z,1018.04
2018-01-15T06:30:47.780Z,1018.03
2018-01-15T06:31:47.852Z,1018.03
2018-01-15T06:32:47.872Z,1018
2018-01-15T06:33:47.809Z,1017.97
2018-01-15T06:34:48.917Z,1018.03
2018-01-15T06:35:48.619Z,1018.02
2018-01-15T06:36:48.633Z,1018
2018-01-15T06:37:48.681Z,1017.95
2018-01-15T06:38:48.749Z,1017.93
2018-01-15T06:39:48.897Z,1017.91
2018-01-15T06:40:48.818Z,1017.92
2018-01-15T06:41:48.754Z,1017.89
2018-01-15T06:42:48.759Z,1017.9
2018-01-15T06:43:48.773Z,1017.91
2018-01-15T06:44:49.036Z,1017.88
2018-01-15T06:45:49.052Z,1017.85
2018-01-15T06:46:49.079Z,1017.85
2018-01-15T06:47:49.096Z,1017.83
2018-01-15T06:48:49.113Z,1017.8
2018-01-15T06:49:49.137Z,1017.81
2018-01-15T06:50:49.217Z,1017.77
2018-01-15T06:51:49.188Z,1017.75
2018-01-15T06:52:49.204Z,1017.78
2018-01-15T06:53:49.206Z,1017.77
2018-01-15T06:54:49.228Z,1017.76
2018-01-15T06:55:49.247Z,1017.69
2018-01-15T06:56:49.270Z,1017.74
2018-01-15T06:57:49.751Z,1017.75
2018-01-15T06:58:49.943Z,1017.79
2018-01-15T06:59:49.795Z,1017.81
2018-01-15T07:00:49.803Z,1017.81
2018-01-15T07:01:50.241Z,1017.76
2018-01-15T07:02:50.287Z,1017.8
2018-01-15T07:03:50.700Z,1017.77
2018-01-15T07:04:50.923Z,1017.79
2018-01-15T07:05:50.722Z,1017.79
2018-01-15T07:06:50.751Z,1017.79
2018-01-15T07:07:50.770Z,1017.7
2018-01-15T07:08:50.803Z,1017.76
2018-01-15T07:09:50.850Z,1017.77
2018-01-15T07:10:50.914Z,1017.7
2018-01-15T07:11:51.376Z,1017.73
2018-01-15T07:12:51.228Z,1017.74
2018-01-15T07:13:51.381Z,1017.73
2018-01-15T07:14:51.448Z,1017.73
2018-01-15T07:15:51.453Z,1017.74
2018-01-15T07:16:51.478Z,1017.66
2018-01-15T07:17:51.889Z,1017.68
2018-01-15T07:18:51.900Z,1017.64
2018-01-15T07:19:51.930Z,1017.63
2018-01-15T07:20:51.943Z,1017.63
2018-01-15T07:21:52.324Z,1017.56
2018-01-15T07:22:52.339Z,1017.56
2018-01-15T07:23:52.791Z,1017.54
2018-01-15T07:24:52.809Z,1017.51
2018-01-15T07:25:52.823Z,1017.5
2018-01-15T07:26:54.086Z,1017.54
2018-01-15T07:27:53.703Z,1017.52
2018-01-15T07:28:53.816Z,1017.51
2018-01-15T07:29:53.866Z,1017.46
2018-01-15T07:30:53.937Z,1017.55
2018-01-15T07:31:53.875Z,1017.43
2018-01-15T07:32:54.062Z,1017.44
2018-01-15T07:33:54.483Z,1017.44
2018-01-15T07:34:54.527Z,1017.45
2018-01-15T07:35:54.577Z,1017.46
2018-01-15T07:36:54.960Z,1017.42
2018-01-15T07:37:54.926Z,1017.47
2018-01-15T07:38:54.614Z,1017.43
2018-01-15T07:39:54.616Z,1017.46
2018-01-15T07:40:54.581Z,1017.54
2018-01-15T07:41:54.612Z,1017.56
2018-01-15T07:42:54.865Z,1017.6
2018-01-15T07:43:54.952Z,1017.48
2018-01-15T07:44:54.861Z,1017.51
2018-01-15T07:45:55.018Z,1017.52
2018-01-15T07:46:54.977Z,1017.55
2018-01-15T07:47:54.935Z,1017.55
2018-01-15T07:48:54.975Z,1017.53
2018-01-15T07:49:56.080Z,1017.55
2018-01-15T07:50:55.566Z,1017.51
2018-01-15T07:51:55.878Z,1017.48
2018-01-15T07:52:55.787Z,1017.53
2018-01-15T07:53:55.647Z,1017.42
2018-01-15T07:54:55.658Z,1017.49
2018-01-15T07:55:55.911Z,1017.38
2018-01-15T07:56:55.694Z,1017.45
2018-01-15T07:57:55.812Z,1017.37
2018-01-15T07:58:56.105Z,1017.43
2018-01-15T07:59:55.749Z,1017.35
2018-01-15T08:00:55.773Z,1017.37
2018-01-15T08:01:57.052Z,1017.33
2018-01-15T08:02:56.649Z,1017.33
2018-01-15T08:03:56.640Z,1017.33
2018-01-15T08:04:57.049Z,1017.33
2018-01-15T08:05:56.681Z,1017.29
2018-01-15T08:06:56.724Z,1017.31
2018-01-15T08:07:56.717Z,1017.26
2018-01-15T08:08:57.022Z,1017.16
2018-01-15T08:09:56.749Z,1017.19
2018-01-15T08:10:56.776Z,1017.23
2018-01-15T08:11:57.335Z,1017.21
2018-01-15T08:12:57.107Z,1017.17
2018-01-15T08:13:57.136Z,1017.13
2018-01-15T08:14:57.148Z,1017.16
2018-01-15T08:15:57.194Z,1017.09
2018-01-15T08:16:57.588Z,1017.08
2018-01-15T08:17:57.623Z,1017.12
2018-01-15T08:18:58.250Z,1017.08
2018-01-15T08:19:57.988Z,1017.03
2018-01-15T08:20:58.421Z,1016.97
2018-01-15T08:21:58.026Z,1016.99
2018-01-15T08:22:58.183Z,1016.93
2018-01-15T08:23:58.063Z,1016.95
2018-01-15T08:24:58.077Z,1016.91
2018-01-15T08:25:58.318Z,1016.95
2018-01-15T08:26:58.580Z,1016.97
2018-01-15T08:27:58.718Z,1016.91
2018-01-15T08:28:58.648Z,1016.92
2018-01-15T08:29:58.685Z,1016.87
2018-01-15T08:30:58.695Z,1016.84
2018-01-15T08:31:59.254Z,1016.85
2018-01-15T08:33:00.104Z,1016.79
2018-01-15T08:33:59.982Z,1016.81
2018-01-15T08:34:59.998Z,1016.82
2018-01-15T08:36:00.322Z,1016.8
2018-01-15T08:37:00.283Z,1016.81
2018-01-15T08:38:00.262Z,1016.78
2018-01-15T08:39:00.076Z,1016.78
2018-01-15T08:40:00.764Z,1016.75
2018-01-15T08:41:00.521Z,1016.69
2018-01-15T08:42:00.586Z,1016.65
2018-01-15T08:43:00.367Z,1016.66
2018-01-15T08:44:00.325Z,1016.67
2018-01-15T08:45:00.623Z,1016.58
2018-01-15T08:46:00.725Z,1016.62
2018-01-15T08:47:00.666Z,1016.64
2018-01-15T08:48:00.250Z,1016.61
2018-01-15T08:49:00.328Z,1016.58
2018-01-15T08:50:00.285Z,1016.62
2018-01-15T08:51:00.706Z,1016.62
2018-01-15T08:52:00.379Z,1016.6
2018-01-15T08:53:00.371Z,1016.59
2018-01-15T08:54:00.638Z,1016.53
2018-01-15T08:55:00.851Z,1016.57
2018-01-15T08:56:00.424Z,1016.49
2018-01-15T08:57:00.456Z,1016.57
2018-01-15T08:58:00.728Z,1016.54
2018-01-15T08:59:00.909Z,1016.54
2018-01-15T09:01:01.015Z,1016.56
2018-01-15T09:02:00.979Z,1016.49
2018-01-15T09:03:01.021Z,1016.5
2018-01-15T09:04:01.042Z,1016.44
2018-01-15T09:05:01.026Z,1016.45
2018-01-15T09:06:01.210Z,1016.61
2018-01-15T09:07:01.099Z,1016.59
2018-01-15T09:08:01.279Z,1016.49
2018-01-15T09:09:01.149Z,1016.48
2018-01-15T09:10:01.735Z,1016.5
2018-01-15T09:11:01.698Z,1016.45
2018-01-15T09:12:02.329Z,1016.48
2018-01-15T09:13:02.468Z,1016.45
2018-01-15T09:14:02.233Z,1016.49
2018-01-15T09:15:02.266Z,1016.49
2018-01-15T09:16:02.294Z,1016.44
2018-01-15T09:17:02.348Z,1016.46
2018-01-15T09:18:02.331Z,1016.37
2018-01-15T09:19:03.291Z,1016.33
2018-01-15T09:20:03.135Z,1016.26
2018-01-15T09:21:03.234Z,1016.22
2018-01-15T09:22:03.265Z,1016.25
2018-01-15T09:23:03.286Z,1016.22
2018-01-15T09:24:03.358Z,1016.1
2018-01-15T09:25:03.348Z,1016.14
2018-01-15T09:26:03.380Z,1016.13
2018-01-15T09:27:08.541Z,1016.08
2018-01-15T09:28:08.684Z,1016.01
2018-01-15T09:29:08.709Z,1016.02
2018-01-15T09:30:08.733Z,1016.02
2018-01-15T09:31:08.765Z,1016
2018-01-15T09:32:08.784Z,1015.92
2018-01-15T09:33:08.830Z,1015.91
2018-01-15T09:34:08.866Z,1015.84
2018-01-15T09:35:09.342Z,1015.95
2018-01-15T09:36:09.738Z,1015.88
2018-01-15T09:37:09.754Z,1015.87
2018-01-15T09:38:09.402Z,1015.86
2018-01-15T09:39:09.574Z,1015.85
2018-01-15T09:40:09.456Z,1015.86
2018-01-15T09:41:09.454Z,1015.82
2018-01-15T09:42:09.784Z,1015.9
2018-01-15T09:43:09.594Z,1015.92
2018-01-15T09:44:09.627Z,1015.93
2018-01-15T09:45:09.657Z,1015.88
2018-01-15T09:46:10.184Z,1015.81
2018-01-15T09:47:10.220Z,1015.77
2018-01-15T09:48:10.370Z,1015.74
2018-01-15T09:49:10.434Z,1015.68
2018-01-15T09:50:10.513Z,1015.78
2018-01-15T09:51:10.284Z,1015.79
2018-01-15T09:52:10.616Z,1015.66
2018-01-15T09:53:10.453Z,1015.65
2018-01-15T09:54:10.434Z,1015.75
2018-01-15T09:55:10.416Z,1015.67
2018-01-15T09:56:10.430Z,1015.61
2018-01-15T09:57:10.456Z,1015.49
2018-01-15T09:58:10.837Z,1015.46
2018-01-15T09:59:10.876Z,1015.49
2018-01-15T10:00:11.281Z,1015.42
2018-01-15T10:01:11.305Z,1015.46
2018-01-15T10:02:11.339Z,1015.42
2018-01-15T10:03:11.356Z,1015.42
2018-01-15T10:04:11.405Z,1015.36
2018-01-15T10:05:11.421Z,1015.37
2018-01-15T10:06:11.439Z,1015.31
2018-01-15T10:07:11.962Z,1015.32
2018-01-15T10:08:11.965Z,1015.27
2018-01-15T10:09:11.956Z,1015.23
2018-01-15T10:10:11.660Z,1015.2
2018-01-15T10:11:11.623Z,1015.22
2018-01-15T10:12:11.708Z,1015.14
2018-01-15T10:13:11.629Z,1015.17
2018-01-15T10:15:11.855Z,1015.16
2018-01-15T10:16:12.893Z,1015.11
2018-01-15T10:17:12.925Z,1015.12
2018-01-15T10:18:12.748Z,1015.13
2018-01-15T10:19:12.628Z,1015.11
2018-01-15T10:20:12.625Z,1015.05
2018-01-15T10:21:12.652Z,1015.04
2018-01-15T10:22:12.810Z,1015.02
2018-01-15T10:23:12.713Z,1014.92
2018-01-15T10:24:13.129Z,1014.98
2018-01-15T10:25:13.135Z,1014.97
2018-01-15T10:26:13.604Z,1014.93
2018-01-15T10:27:13.862Z,1014.8
2018-01-15T10:28:13.874Z,1014.85
2018-01-15T10:29:13.892Z,1014.81
2018-01-15T10:30:13.913Z,1014.75
2018-01-15T10:31:14.609Z,1014.76
2018-01-15T10:32:14.312Z,1014.79
2018-01-15T10:33:14.364Z,1014.69
2018-01-15T10:34:14.537Z,1014.56
2018-01-15T10:35:14.572Z,1014.74
2018-01-15T10:36:14.636Z,1014.62
2018-01-15T10:37:14.622Z,1014.64
2018-01-15T10:38:14.660Z,1014.64
2018-01-15T10:39:14.672Z,1014.65
2018-01-15T10:40:15.038Z,1014.61
2018-01-15T10:41:15.207Z,1014.54
2018-01-15T10:42:15.261Z,1014.57
2018-01-15T10:43:15.248Z,1014.54
2018-01-15T10:44:15.687Z,1014.41
2018-01-15T10:45:15.790Z,1014.46
2018-01-15T10:46:16.041Z,1014.3
2018-01-15T10:47:16.175Z,1014.41
2018-01-15T10:48:16.278Z,1014.33
2018-01-15T10:49:16.052Z,1014.22
2018-01-15T10:50:16.377Z,1014.24
2018-01-15T10:51:16.237Z,1014.19
2018-01-15T10:52:16.344Z,1014.24
2018-01-15T10:53:16.306Z,1014.12
2018-01-15T10:54:16.505Z,1014.13
2018-01-15T10:55:16.530Z,1014.02
2018-01-15T10:56:16.575Z,1014.03
2018-01-15T10:57:16.771Z,1013.97
2018-01-15T10:58:17.046Z,1013.99
2018-01-15T10:59:17.275Z,1013.87
2018-01-15T11:00:23.024Z,1013.81
2018-01-15T11:01:23.023Z,1013.96
2018-01-15T11:02:23.033Z,1013.79
2018-01-15T11:03:23.320Z,1013.77
2018-01-15T11:04:23.125Z,1013.76
2018-01-15T11:05:23.110Z,1013.69
2018-01-15T11:06:23.393Z,1013.67
2018-01-15T11:07:23.263Z,1013.57
2018-01-15T11:08:23.302Z,1013.74
2018-01-15T11:09:23.312Z,1013.64
2018-01-15T11:10:23.353Z,1013.59
2018-01-15T11:11:23.562Z,1013.59
2018-01-15T11:12:23.718Z,1013.58
2018-01-15T11:13:24.047Z,1013.58
2018-01-15T11:14:24.444Z,1013.46
2018-01-15T11:15:24.383Z,1013.52
2018-01-15T11:16:24.418Z,1013.39
2018-01-15T11:17:24.798Z,1013.51
2018-01-15T11:18:24.448Z,1013.57
2018-01-15T11:19:24.854Z,1013.47
2018-01-15T11:20:25.333Z,1013.51
2018-01-15T11:21:25.444Z,1013.36
2018-01-15T11:22:25.449Z,1013.45
2018-01-15T11:23:25.474Z,1013.43
2018-01-15T11:24:25.509Z,1013.42
2018-01-15T11:25:25.557Z,1013.28
2018-01-15T11:26:25.543Z,1013.3
2018-01-15T11:27:25.572Z,1013.19
2018-01-15T11:28:26.017Z,1013.17
2018-01-15T11:29:26.187Z,1013.14
2018-01-15T11:30:26.201Z,1013.07
2018-01-15T11:31:26.226Z,1013.15
2018-01-15T11:32:26.841Z,1013.06
2018-01-15T11:33:26.862Z,1013.13
2018-01-15T11:34:27.022Z,1013
2018-01-15T11:35:26.984Z,1012.96
2018-01-15T11:36:28.194Z,1012.95
2018-01-15T11:37:28.052Z,1013.02
2018-01-15T11:38:28.094Z,1012.9
2018-01-15T11:39:28.529Z,1012.84
2018-01-15T11:40:28.556Z,1012.8
2018-01-15T11:41:28.160Z,1012.91
2018-01-15T11:42:29.037Z,1012.8
2018-01-15T11:43:28.813Z,1012.73
2018-01-15T11:44:28.709Z,1012.75
2018-01-15T11:45:28.752Z,1012.65
2018-01-15T11:46:28.760Z,1012.76
2018-01-15T11:47:28.804Z,1012.6
2018-01-15T11:48:28.824Z,1012.53
2018-01-15T11:49:29.065Z,1012.56
2018-01-15T11:50:29.327Z,1012.55
2018-01-15T11:51:28.904Z,1012.44
2018-01-15T11:52:29.068Z,1012.47
2018-01-15T11:53:29.113Z,1012.45
2018-01-15T11:54:29.930Z,1012.46
2018-01-15T11:55:29.663Z,1012.49
2018-01-15T11:56:29.688Z,1012.44
2018-01-15T11:57:29.903Z,1012.39
2018-01-15T11:58:30.119Z,1012.43
2018-01-15T11:59:30.323Z,1012.3
2018-01-15T12:00:30.313Z,1012.37
2018-01-15T12:01:30.414Z,1012.4
2018-01-15T12:02:30.750Z,1012.33
2018-01-15T12:03:30.780Z,1012.21
2018-01-15T12:04:30.776Z,1012.3
2018-01-15T12:05:31.018Z,1012.31
2018-01-15T12:06:31.293Z,1012.22
2018-01-15T12:07:31.531Z,1012.19
2018-01-15T12:08:31.451Z,1012.14
2018-01-15T12:09:31.618Z,1012.07
2018-01-15T12:10:32.054Z,1012.06
2018-01-15T12:11:32.194Z,1012.2
2018-01-15T12:12:32.221Z,1011.98
2018-01-15T12:13:32.573Z,1011.97